createdAt,value
2023-02-18T00:00:02.925Z,1014.54
2023-02-18T00:01:02.571Z,1014.53
2023-02-18T00:02:03.039Z,1014.61
2023-02-18T00:03:02.693Z,1014.57
2023-02-18T00:04:02.517Z,1014.61
2023-02-18T00:05:02.406Z,1014.57
2023-02-18T00:06:02.918Z,1014.63
2023-02-18T00:07:02.257Z,1014.58
2023-02-18T00:08:02.218Z,1014.61
2023-02-18T00:09:02.187Z,1014.58
2023-02-18T00:10:01.973Z,1014.60
2023-02-18T00:11:01.801Z,1014.63
2023-02-18T00:12:02.330Z,1014.64
2023-02-18T00:13:02.840Z,1014.63
2023-02-18T00:14:02.417Z,1014.66
2023-02-18T00:15:02.977Z,1014.70
2023-02-18T00:16:02.584Z,1014.69
2023-02-18T00:17:02.507Z,1014.65
2023-02-18T00:18:02.972Z,1014.68
2023-02-18T00:19:02.706Z,1014.66
2023-02-18T00:20:03.085Z,1014.66
2023-02-18T00:21:02.722Z,1014.64
2023-02-18T00:22:02.936Z,1014.60
2023-02-18T00:23:02.836Z,1014.58
2023-02-18T00:24:02.711Z,1014.60
2023-02-18T00:25:02.619Z,1014.62
2023-02-18T00:26:03.036Z,1014.55
2023-02-18T00:27:02.002Z,1014.57
2023-02-18T00:28:02.401Z,1014.61
2023-02-18T00:29:02.035Z,1014.53
2023-02-18T00:30:02.517Z,1014.53
2023-02-18T00:31:02.299Z,1014.53
2023-02-18T00:32:02.301Z,1014.55
2023-02-18T00:33:02.772Z,1014.51
2023-02-18T00:34:02.168Z,1014.51
2023-02-18T00:35:02.762Z,1014.46
2023-02-18T00:36:02.399Z,1014.48
2023-02-18T00:37:02.183Z,1014.48
2023-02-18T00:38:02.811Z,1014.48
2023-02-18T00:39:02.460Z,1014.44
2023-02-18T00:40:02.350Z,1014.42
2023-02-18T00:41:02.156Z,1014.42
2023-02-18T00:42:02.711Z,1014.40
2023-02-18T00:43:03.211Z,1014.35
2023-02-18T00:44:02.774Z,1014.38
2023-02-18T00:45:03.203Z,1014.43
2023-02-18T00:46:02.843Z,1014.45
2023-02-18T00:47:02.323Z,1014.47
2023-02-18T00:48:02.889Z,1014.43
2023-02-18T00:49:02.489Z,1014.49
2023-02-18T00:50:02.605Z,1014.45
2023-02-18T00:51:02.361Z,1014.44
2023-02-18T00:52:01.981Z,1014.39
2023-02-18T00:53:01.836Z,1014.34
2023-02-18T00:54:02.319Z,1014.26
2023-02-18T00:55:02.144Z,1014.22
2023-02-18T00:56:01.995Z,1014.19
2023-02-18T00:57:02.558Z,1014.18
2023-02-18T00:58:02.449Z,1014.19
2023-02-18T00:59:02.868Z,1014.21
2023-02-18T01:00:02.605Z,1014.17
2023-02-18T01:01:02.573Z,1014.13
2023-02-18T01:02:02.965Z,1014.08
2023-02-18T01:03:03.358Z,1014.08
2023-02-18T01:04:03.096Z,1014.09
2023-02-18T01:05:02.968Z,1014.07
2023-02-18T01:06:03.401Z,1014.05
2023-02-18T01:07:03.107Z,1014.08
2023-02-18T01:08:03.480Z,1014.05
2023-02-18T01:09:03.204Z,1014.12
2023-02-18T01:10:03.047Z,1014.10
2023-02-18T01:11:03.531Z,1014.14
2023-02-18T01:12:03.233Z,1014.13
2023-02-18T01:13:03.738Z,1014.13
2023-02-18T01:14:03.578Z,1014.16
2023-02-18T01:15:03.374Z,1014.13
2023-02-18T01:16:03.734Z,1014.10
2023-02-18T01:17:03.616Z,1014.08
2023-02-18T01:18:03.397Z,1014.10
2023-02-18T01:19:03.885Z,1014.06
2023-02-18T01:20:03.678Z,1014.08
2023-02-18T01:21:03.513Z,1014.11
2023-02-18T01:22:02.963Z,1014.09
2023-02-18T01:23:02.798Z,1014.09
2023-02-18T01:24:03.336Z,1014.10
2023-02-18T01:25:03.096Z,1014.08
2023-02-18T01:26:02.974Z,1014.10
2023-02-18T01:27:03.332Z,1014.11
2023-02-18T01:28:03.541Z,1014.10
2023-02-18T01:29:03.360Z,1014.09
2023-02-18T01:30:03.233Z,1014.01
2023-02-18T01:31:03.879Z,1013.99
2023-02-18T01:32:03.506Z,1013.91
2023-02-18T01:33:03.393Z,1013.93
2023-02-18T01:34:03.236Z,1013.92
2023-02-18T01:35:03.747Z,1013.98
2023-02-18T01:36:03.612Z,1014.03
2023-02-18T01:37:03.485Z,1014.00
2023-02-18T01:38:02.935Z,1014.03
2023-02-18T01:39:03.391Z,1013.98
2023-02-18T01:40:03.283Z,1013.98
2023-02-18T01:41:03.003Z,1013.99
2023-02-18T01:42:03.564Z,1013.94
2023-02-18T01:43:03.289Z,1013.91
2023-02-18T01:44:03.896Z,1013.99
2023-02-18T01:45:03.426Z,1013.97
2023-02-18T01:46:03.842Z,1013.95
2023-02-18T01:47:03.167Z,1013.94
2023-02-18T01:48:03.116Z,1013.94
2023-02-18T01:49:02.883Z,1013.94
2023-02-18T01:50:03.424Z,1013.91
2023-02-18T01:51:03.033Z,1013.85
2023-02-18T01:52:03.575Z,1013.86
2023-02-18T01:53:03.456Z,1013.85
2023-02-18T01:54:03.796Z,1013.87
2023-02-18T01:55:03.405Z,1013.83
2023-02-18T01:56:03.828Z,1013.81
2023-02-18T01:57:03.137Z,1013.80
2023-02-18T01:58:02.868Z,1013.81
2023-02-18T01:59:03.283Z,1013.84
2023-02-18T02:00:03.023Z,1013.82
2023-02-18T02:01:02.792Z,1013.85
2023-02-18T02:02:02.445Z,1013.88
2023-02-18T02:03:02.041Z,1013.86
2023-02-18T02:04:01.923Z,1013.91
2023-02-18T02:05:02.309Z,1013.91
2023-02-18T02:06:02.193Z,1013.92
2023-02-18T02:07:02.881Z,1013.90
2023-02-18T02:08:02.534Z,1013.90
2023-02-18T02:09:02.968Z,1013.91
2023-02-18T02:10:02.532Z,1013.85
2023-02-18T02:11:02.941Z,1013.85
2023-02-18T02:12:03.095Z,1013.81
2023-02-18T02:13:02.983Z,1013.82
2023-02-18T02:14:02.790Z,1013.84
2023-02-18T02:15:03.350Z,1013.81
2023-02-18T02:16:02.983Z,1013.79
2023-02-18T02:17:02.530Z,1013.78
2023-02-18T02:18:02.235Z,1013.74
2023-02-18T02:19:02.321Z,1013.69
2023-02-18T02:20:02.435Z,1013.73
2023-02-18T02:21:02.256Z,1013.68
2023-02-18T02:22:02.749Z,1013.61
2023-02-18T02:23:02.578Z,1013.63
2023-02-18T02:24:02.450Z,1013.61
2023-02-18T02:25:02.272Z,1013.60
2023-02-18T02:26:02.582Z,1013.55
2023-02-18T02:27:03.017Z,1013.58
2023-02-18T02:28:02.799Z,1013.52
2023-02-18T02:29:02.682Z,1013.57
2023-02-18T02:30:02.873Z,1013.51
2023-02-18T02:31:02.906Z,1013.52
2023-02-18T02:32:02.515Z,1013.49
2023-02-18T02:33:02.286Z,1013.45
2023-02-18T02:34:02.033Z,1013.45
2023-02-18T02:35:02.541Z,1013.44
2023-02-18T02:36:02.069Z,1013.44
2023-02-18T02:37:02.668Z,1013.48
2023-02-18T02:38:02.341Z,1013.40
2023-02-18T02:39:02.104Z,1013.43
2023-02-18T02:40:02.660Z,1013.37
2023-02-18T02:41:02.267Z,1013.36
2023-02-18T02:42:02.683Z,1013.30
2023-02-18T02:43:02.562Z,1013.28
2023-02-18T02:44:02.273Z,1013.23
2023-02-18T02:45:02.754Z,1013.22
2023-02-18T02:46:02.332Z,1013.22
2023-02-18T02:47:02.877Z,1013.21
2023-02-18T02:48:02.790Z,1013.18
2023-02-18T02:49:02.496Z,1013.18
2023-02-18T02:50:02.991Z,1013.21
2023-02-18T02:51:02.516Z,1013.16
2023-02-18T02:52:02.579Z,1013.16
2023-02-18T02:53:03.076Z,1013.15
2023-02-18T02:54:03.009Z,1013.13
2023-02-18T02:55:02.543Z,1013.18
2023-02-18T02:56:03.013Z,1013.15
2023-02-18T02:57:03.348Z,1013.15
2023-02-18T02:58:03.335Z,1013.14
2023-02-18T02:59:02.824Z,1013.15
2023-02-18T03:00:03.307Z,1013.13
2023-02-18T03:01:03.199Z,1013.11
2023-02-18T03:02:03.608Z,1013.12
2023-02-18T03:03:03.738Z,1013.12
2023-02-18T03:04:03.399Z,1013.11
2023-02-18T03:05:03.270Z,1013.10
2023-02-18T03:06:03.160Z,1013.11
2023-02-18T03:07:02.720Z,1013.07
2023-02-18T03:08:02.438Z,1013.08
2023-02-18T03:09:02.132Z,1013.09
2023-02-18T03:10:02.644Z,1013.03
2023-02-18T03:11:02.696Z,1013.02
2023-02-18T03:12:02.919Z,1013.02
2023-02-18T03:13:02.527Z,1012.96
2023-02-18T03:14:02.932Z,1012.95
2023-02-18T03:15:02.436Z,1012.88
2023-02-18T03:16:03.119Z,1012.87
2023-02-18T03:17:03.340Z,1012.85
2023-02-18T03:18:02.886Z,1012.80
2023-02-18T03:19:03.375Z,1012.79
2023-02-18T03:20:03.331Z,1012.78
2023-02-18T03:21:02.935Z,1012.74
2023-02-18T03:22:03.325Z,1012.77
2023-02-18T03:23:02.854Z,1012.73
2023-02-18T03:24:03.427Z,1012.71
2023-02-18T03:25:02.891Z,1012.71
2023-02-18T03:26:03.399Z,1012.69
2023-02-18T03:27:03.708Z,1012.66
2023-02-18T03:28:03.218Z,1012.65
2023-02-18T03:29:03.728Z,1012.61
2023-02-18T03:30:03.248Z,1012.58
2023-02-18T03:31:03.051Z,1012.58
2023-02-18T03:32:02.781Z,1012.58
2023-02-18T03:33:03.159Z,1012.53
2023-02-18T03:34:03.009Z,1012.52
2023-02-18T03:35:02.825Z,1012.51
2023-02-18T03:36:02.718Z,1012.47
2023-02-18T03:37:02.328Z,1012.47
2023-02-18T03:38:02.862Z,1012.44
2023-02-18T03:39:02.389Z,1012.45
2023-02-18T03:40:02.248Z,1012.42
2023-02-18T03:41:02.753Z,1012.42
2023-02-18T03:42:02.615Z,1012.38
2023-02-18T03:43:02.942Z,1012.40
2023-02-18T03:44:02.824Z,1012.43
2023-02-18T03:45:02.585Z,1012.47
2023-02-18T03:46:03.162Z,1012.43
2023-02-18T03:47:03.025Z,1012.47
2023-02-18T03:48:02.916Z,1012.42
2023-02-18T03:49:02.889Z,1012.41
2023-02-18T03:50:03.352Z,1012.36
2023-02-18T03:51:02.934Z,1012.33
2023-02-18T03:52:02.501Z,1012.37
2023-02-18T03:53:03.045Z,1012.38
2023-02-18T03:54:02.573Z,1012.38
2023-02-18T03:55:02.449Z,1012.37
2023-02-18T03:56:02.994Z,1012.41
2023-02-18T03:57:02.480Z,1012.41
2023-02-18T03:58:03.049Z,1012.33
2023-02-18T03:59:02.588Z,1012.41
2023-02-18T04:00:02.474Z,1012.39
2023-02-18T04:01:02.752Z,1012.43
2023-02-18T04:02:02.575Z,1012.45
2023-02-18T04:03:03.062Z,1012.46
2023-02-18T04:04:02.570Z,1012.48
2023-02-18T04:05:02.992Z,1012.45
2023-02-18T04:06:02.866Z,1012.47
2023-02-18T04:07:02.672Z,1012.44
2023-02-18T04:08:03.133Z,1012.50
2023-02-18T04:09:02.859Z,1012.46
2023-02-18T04:10:03.212Z,1012.47
2023-02-18T04:11:02.813Z,1012.47
2023-02-18T04:12:03.296Z,1012.48
2023-02-18T04:13:03.761Z,1012.43
2023-02-18T04:14:03.298Z,1012.43
2023-02-18T04:15:03.175Z,1012.43
2023-02-18T04:16:03.726Z,1012.42
2023-02-18T04:17:03.210Z,1012.33
2023-02-18T04:18:03.737Z,1012.37
2023-02-18T04:19:03.774Z,1012.36
2023-02-18T04:20:03.597Z,1012.36
2023-02-18T04:21:03.471Z,1012.32
2023-02-18T04:22:03.330Z,1012.36
2023-02-18T04:23:03.221Z,1012.39
2023-02-18T04:24:03.706Z,1012.38
2023-02-18T04:25:03.611Z,1012.35
2023-02-18T04:26:03.304Z,1012.34
2023-02-18T04:27:02.839Z,1012.34
2023-02-18T04:28:03.303Z,1012.29
2023-02-18T04:29:02.925Z,1012.30
2023-02-18T04:30:03.415Z,1012.25
2023-02-18T04:31:03.109Z,1012.24
2023-02-18T04:32:03.014Z,1012.24
2023-02-18T04:33:02.822Z,1012.24
2023-02-18T04:34:03.129Z,1012.21
2023-02-18T04:35:03.007Z,1012.20
2023-02-18T04:36:02.862Z,1012.19
2023-02-18T04:37:03.262Z,1012.17
2023-02-18T04:38:03.800Z,1012.17
2023-02-18T04:39:03.431Z,1012.15
2023-02-18T04:40:03.845Z,1012.18
2023-02-18T04:41:03.439Z,1012.21
2023-02-18T04:42:03.015Z,1012.22
2023-02-18T04:43:02.853Z,1012.22
2023-02-18T04:44:03.315Z,1012.20
2023-02-18T04:45:02.999Z,1012.23
2023-02-18T04:46:03.547Z,1012.26
2023-02-18T04:47:03.200Z,1012.22
2023-02-18T04:48:02.985Z,1012.17
2023-02-18T04:49:03.478Z,1012.15
2023-02-18T04:50:03.320Z,1012.13
2023-02-18T04:51:03.041Z,1012.13
2023-02-18T04:52:03.538Z,1012.06
2023-02-18T04:53:03.402Z,1012.05
2023-02-18T04:54:03.457Z,1012.06
2023-02-18T04:55:03.855Z,1012.05
2023-02-18T04:56:03.457Z,1012.07
2023-02-18T04:57:02.927Z,1012.05
2023-02-18T04:58:03.326Z,1012.05
2023-02-18T04:59:02.957Z,1011.99
2023-02-18T05:00:02.777Z,1012.02
2023-02-18T05:01:02.868Z,1012.00
2023-02-18T05:02:02.464Z,1011.97
2023-02-18T05:03:02.319Z,1011.96
2023-02-18T05:04:02.242Z,1011.90
2023-02-18T05:05:02.762Z,1011.91
2023-02-18T05:06:02.335Z,1011.88
2023-02-18T05:07:01.987Z,1011.91
2023-02-18T05:08:02.096Z,1011.91
2023-02-18T05:09:01.740Z,1011.90
2023-02-18T05:10:01.614Z,1011.95
2023-02-18T05:11:02.183Z,1011.90
2023-02-18T05:12:02.418Z,1011.91
2023-02-18T05:13:02.291Z,1011.92
2023-02-18T05:14:02.197Z,1011.92
2023-02-18T05:15:02.082Z,1011.90
2023-02-18T05:16:02.727Z,1011.90
2023-02-18T05:17:02.130Z,1011.87
2023-02-18T05:18:02.052Z,1011.85
2023-02-18T05:19:01.840Z,1011.90
2023-02-18T05:20:01.730Z,1011.85
2023-02-18T05:21:01.624Z,1011.86
2023-02-18T05:22:02.109Z,1011.85
2023-02-18T05:23:02.050Z,1011.87
2023-02-18T05:24:01.953Z,1011.82
2023-02-18T05:25:01.860Z,1011.80
2023-02-18T05:26:02.293Z,1011.79
2023-02-18T05:27:02.592Z,1011.82
2023-02-18T05:28:02.475Z,1011.75
2023-02-18T05:29:02.400Z,1011.67
2023-02-18T05:30:02.300Z,1011.71
2023-02-18T05:31:02.346Z,1011.71
2023-02-18T05:32:02.920Z,1011.72
2023-02-18T05:33:02.840Z,1011.62
2023-02-18T05:34:02.730Z,1011.66
2023-02-18T05:35:02.574Z,1011.63
2023-02-18T05:36:02.439Z,1011.65
2023-02-18T05:37:02.607Z,1011.57
2023-02-18T05:38:02.451Z,1011.61
2023-02-18T05:39:02.231Z,1011.59
2023-02-18T05:40:02.731Z,1011.54
2023-02-18T05:41:02.352Z,1011.53
2023-02-18T05:42:02.763Z,1011.53
2023-02-18T05:43:02.463Z,1011.50
2023-02-18T05:44:02.331Z,1011.51
2023-02-18T05:45:02.748Z,1011.52
2023-02-18T05:46:02.560Z,1011.59
2023-02-18T05:47:02.256Z,1011.55
2023-02-18T05:48:01.819Z,1011.55
2023-02-18T05:49:01.684Z,1011.55
2023-02-18T05:50:02.115Z,1011.57
2023-02-18T05:51:01.986Z,1011.63
2023-02-18T05:52:02.484Z,1011.58
2023-02-18T05:53:01.979Z,1011.53
2023-02-18T05:54:02.459Z,1011.57
2023-02-18T05:55:02.369Z,1011.58
2023-02-18T05:56:02.267Z,1011.55
2023-02-18T05:57:02.699Z,1011.49
2023-02-18T05:58:02.301Z,1011.48
2023-02-18T05:59:02.717Z,1011.46
2023-02-18T06:00:02.361Z,1011.51
2023-02-18T06:01:02.596Z,1011.46
2023-02-18T06:02:03.067Z,1011.44
2023-02-18T06:03:02.993Z,1011.45
2023-02-18T06:04:02.698Z,1011.43
2023-02-18T06:05:02.589Z,1011.50
2023-02-18T06:06:03.163Z,1011.45
2023-02-18T06:07:02.378Z,1011.37
2023-02-18T06:08:02.300Z,1011.39
2023-02-18T06:09:02.088Z,1011.42
2023-02-18T06:10:02.082Z,1011.40
2023-02-18T06:11:02.448Z,1011.40
2023-02-18T06:12:02.971Z,1011.36
2023-02-18T06:13:02.586Z,1011.40
2023-02-18T06:14:02.475Z,1011.42
2023-02-18T06:15:02.906Z,1011.39
2023-02-18T06:16:02.841Z,1011.39
2023-02-18T06:17:01.815Z,1011.41
2023-02-18T06:18:02.219Z,1011.34
2023-02-18T06:19:02.057Z,1011.29
2023-02-18T06:20:01.992Z,1011.26
2023-02-18T06:21:01.865Z,1011.31
2023-02-18T06:22:02.981Z,1011.30
2023-02-18T06:23:02.556Z,1011.23
2023-02-18T06:24:02.449Z,1011.28
2023-02-18T06:25:02.976Z,1011.25
2023-02-18T06:26:02.564Z,1011.21
2023-02-18T06:27:02.495Z,1011.20
2023-02-18T06:28:02.431Z,1011.20
2023-02-18T06:29:02.952Z,1011.12
2023-02-18T06:30:02.954Z,1011.11
2023-02-18T06:31:03.215Z,1011.07
2023-02-18T06:32:02.073Z,1011.07
2023-02-18T06:33:01.896Z,1011.11
2023-02-18T06:34:02.335Z,1011.09
2023-02-18T06:35:02.189Z,1011.14
2023-02-18T06:36:01.967Z,1011.10
2023-02-18T06:37:02.483Z,1011.10
2023-02-18T06:38:02.437Z,1011.11
2023-02-18T06:39:03.075Z,1011.15
2023-02-18T06:40:02.750Z,1011.12
2023-02-18T06:41:02.620Z,1011.16
2023-02-18T06:42:02.016Z,1011.14
2023-02-18T06:43:01.943Z,1011.14
2023-02-18T06:44:01.868Z,1011.10
2023-02-18T06:45:02.440Z,1011.18
2023-02-18T06:46:02.099Z,1011.15
2023-02-18T06:47:02.059Z,1011.14
2023-02-18T06:48:02.010Z,1011.12
2023-02-18T06:49:01.969Z,1011.09
2023-02-18T06:50:02.477Z,1011.14
2023-02-18T06:51:02.044Z,1011.13
2023-02-18T06:52:02.718Z,1011.08
2023-02-18T06:53:02.576Z,1011.13
2023-02-18T06:54:03.060Z,1011.15
2023-02-18T06:55:02.856Z,1011.15
2023-02-18T06:56:02.710Z,1011.14
2023-02-18T06:57:02.470Z,1011.13
2023-02-18T06:58:02.318Z,1011.13
2023-02-18T06:59:02.251Z,1011.14
2023-02-18T07:00:02.836Z,1011.16
2023-02-18T07:01:02.518Z,1011.15
2023-02-18T07:02:02.446Z,1011.19
2023-02-18T07:03:02.350Z,1011.14
2023-02-18T07:04:02.405Z,1011.15
2023-02-18T07:05:02.833Z,1011.10
2023-02-18T07:06:02.458Z,1011.12
2023-02-18T07:07:02.046Z,1011.13
2023-02-18T07:08:01.938Z,1011.12
2023-02-18T07:09:01.954Z,1011.15
2023-02-18T07:10:01.953Z,1011.11
2023-02-18T07:11:01.874Z,1011.11
2023-02-18T07:12:02.522Z,1011.04
2023-02-18T07:13:02.320Z,1011.03
2023-02-18T07:14:02.877Z,1011.05
2023-02-18T07:15:02.504Z,1011.08
2023-02-18T07:16:02.500Z,1011.03
2023-02-18T07:17:02.233Z,1011.03
2023-02-18T07:18:02.176Z,1011.07
2023-02-18T07:19:02.146Z,1011.07
2023-02-18T07:20:02.088Z,1011.07
2023-02-18T07:21:01.916Z,1011.10
2023-02-18T07:22:02.505Z,1010.99
2023-02-18T07:23:02.576Z,1011.09
2023-02-18T07:24:02.573Z,1011.07
2023-02-18T07:25:02.495Z,1011.15
2023-02-18T07:26:02.347Z,1011.09
2023-02-18T07:27:02.110Z,1011.11
2023-02-18T07:28:02.119Z,1011.16
2023-02-18T07:29:02.034Z,1011.18
2023-02-18T07:30:01.996Z,1011.20
2023-02-18T07:31:01.978Z,1011.19
2023-02-18T07:32:02.712Z,1011.17
2023-02-18T07:33:04.061Z,1011.24
2023-02-18T07:34:02.531Z,1011.23
2023-02-18T07:35:02.440Z,1011.26
2023-02-18T07:36:02.294Z,1011.29
2023-02-18T07:37:02.912Z,1011.34
2023-02-18T07:38:02.937Z,1011.37
2023-02-18T07:39:02.878Z,1011.40
2023-02-18T07:40:02.881Z,1011.43
2023-02-18T07:41:02.868Z,1011.47
2023-02-18T07:42:02.527Z,1011.51
2023-02-18T07:43:02.544Z,1011.53
2023-02-18T07:44:02.449Z,1011.51
2023-02-18T07:45:02.355Z,1011.54
2023-02-18T07:46:02.338Z,1011.55
2023-02-18T07:47:02.990Z,1011.55
2023-02-18T07:48:02.923Z,1011.59
2023-02-18T07:49:02.542Z,1011.64
2023-02-18T07:50:03.191Z,1011.59
2023-02-18T07:51:02.899Z,1011.56
2023-02-18T07:52:04.420Z,1011.53
2023-02-18T07:53:02.586Z,1011.51
2023-02-18T07:54:02.537Z,1011.47
2023-02-18T07:55:02.367Z,1011.54
2023-02-18T07:56:02.741Z,1011.56
2023-02-18T07:57:02.206Z,1011.57
2023-02-18T07:58:02.188Z,1011.56
2023-02-18T07:59:02.171Z,1011.61
2023-02-18T08:00:02.118Z,1011.55
2023-02-18T08:01:02.242Z,1011.53
2023-02-18T08:02:02.893Z,1011.58
2023-02-18T08:03:02.600Z,1011.55
2023-02-18T08:04:02.670Z,1011.54
2023-02-18T08:05:02.463Z,1011.56
2023-02-18T08:06:02.461Z,1011.49
2023-02-18T08:07:03.136Z,1011.48
2023-02-18T08:08:02.976Z,1011.47
2023-02-18T08:09:02.769Z,1011.47
2023-02-18T08:10:03.009Z,1011.47
2023-02-18T08:11:13.412Z,1011.49
2023-02-18T08:12:02.757Z,1011.45
2023-02-18T08:13:02.382Z,1011.51
2023-02-18T08:14:02.352Z,1011.52
2023-02-18T08:15:02.252Z,1011.54
2023-02-18T08:16:02.192Z,1011.57
2023-02-18T08:17:02.804Z,1011.53
2023-02-18T08:18:02.540Z,1011.47
2023-02-18T08:19:02.520Z,1011.50
2023-02-18T08:20:02.416Z,1011.57
2023-02-18T08:21:02.260Z,1011.53
2023-02-18T08:22:02.954Z,1011.53
2023-02-18T08:23:02.582Z,1011.56
2023-02-18T08:24:02.509Z,1011.59
2023-02-18T08:25:02.526Z,1011.57
2023-02-18T08:26:02.386Z,1011.61
2023-02-18T08:27:03.048Z,1011.68
2023-02-18T08:28:02.738Z,1011.62
2023-02-18T08:29:02.704Z,1011.72
2023-02-18T08:30:02.661Z,1011.70
2023-02-18T08:31:02.747Z,1011.74
2023-02-18T08:32:03.282Z,1011.84
2023-02-18T08:33:02.881Z,1011.85
2023-02-18T08:34:02.809Z,1011.80
2023-02-18T08:35:02.825Z,1011.84
2023-02-18T08:36:02.762Z,1011.85
2023-02-18T08:37:03.445Z,1011.78
2023-02-18T08:38:03.197Z,1011.80
2023-02-18T08:39:03.153Z,1011.89
2023-02-18T08:40:03.137Z,1011.79
2023-02-18T08:41:03.022Z,1011.85
2023-02-18T08:42:02.758Z,1011.86
2023-02-18T08:43:02.464Z,1011.89
2023-02-18T08:44:02.436Z,1012.01
2023-02-18T08:45:02.388Z,1012.00
2023-02-18T08:46:02.395Z,1012.02
2023-02-18T08:47:03.022Z,1012.09
2023-02-18T08:48:17.565Z,1012.10
2023-02-18T08:49:02.740Z,1012.15
2023-02-18T08:50:02.661Z,1012.15
2023-02-18T08:51:02.492Z,1012.30
2023-02-18T08:52:03.178Z,1012.23
2023-02-18T08:53:02.879Z,1012.27
2023-02-18T08:54:02.676Z,1012.21
2023-02-18T08:55:02.801Z,1012.25
2023-02-18T08:56:02.692Z,1012.29
2023-02-18T08:57:02.911Z,1012.32
2023-02-18T08:58:03.057Z,1012.27
2023-02-18T08:59:02.762Z,1012.31
2023-02-18T09:00:03.391Z,1012.33
2023-02-18T09:01:03.146Z,1012.38
2023-02-18T09:02:03.687Z,1012.40
2023-02-18T09:03:03.454Z,1012.34
2023-02-18T09:04:03.353Z,1012.35
2023-02-18T09:05:03.201Z,1012.40
2023-02-18T09:06:03.141Z,1012.29
2023-02-18T09:07:02.747Z,1012.33
2023-02-18T09:08:02.883Z,1012.44
2023-02-18T09:09:02.879Z,1012.32
2023-02-18T09:10:02.787Z,1012.41
2023-02-18T09:11:02.998Z,1012.44
2023-02-18T09:12:03.017Z,1012.38
2023-02-18T09:13:03.559Z,1012.41
2023-02-18T09:14:03.304Z,1012.51
2023-02-18T09:15:03.269Z,1012.42
2023-02-18T09:16:03.586Z,1012.40
2023-02-18T09:17:02.433Z,1012.45
2023-02-18T09:18:03.012Z,1012.44
2023-02-18T09:19:02.764Z,1012.34
2023-02-18T09:20:02.791Z,1012.40
2023-02-18T09:21:02.424Z,1012.38
2023-02-18T09:22:02.981Z,1012.33
2023-02-18T09:23:03.494Z,1012.25
2023-02-18T09:24:03.217Z,1012.25
2023-02-18T09:25:03.037Z,1012.33
2023-02-18T09:26:03.046Z,1012.30
2023-02-18T09:27:02.602Z,1012.30
2023-02-18T09:28:03.169Z,1012.29
2023-02-18T09:29:02.867Z,1012.32
2023-02-18T09:30:02.706Z,1012.25
2023-02-18T09:31:03.033Z,1012.28
2023-02-18T09:32:03.065Z,1012.26
2023-02-18T09:33:03.149Z,1012.19
2023-02-18T09:34:03.122Z,1012.14
2023-02-18T09:35:03.291Z,1012.21
2023-02-18T09:36:03.254Z,1012.19
2023-02-18T09:37:03.243Z,1012.18
2023-02-18T09:38:03.722Z,1012.14
2023-02-18T09:39:03.581Z,1012.12
2023-02-18T09:40:03.813Z,1012.10
2023-02-18T09:41:03.623Z,1012.05
2023-02-18T09:42:03.278Z,1012.03
2023-02-18T09:43:03.529Z,1012.07
2023-02-18T09:44:03.382Z,1012.08
2023-02-18T09:45:03.414Z,1012.01
2023-02-18T09:46:03.340Z,1012.00
2023-02-18T09:47:02.794Z,1012.06
2023-02-18T09:48:03.170Z,1012.07
2023-02-18T09:49:02.820Z,1012.02
2023-02-18T09:50:02.738Z,1012.01
2023-02-18T09:51:02.659Z,1012.03
2023-02-18T09:52:03.303Z,1012.00
2023-02-18T09:53:03.290Z,1012.04
2023-02-18T09:54:03.694Z,1012.00
2023-02-18T09:55:03.447Z,1011.99
2023-02-18T09:56:03.727Z,1011.91
2023-02-18T09:57:02.428Z,1011.94
2023-02-18T09:58:02.229Z,1011.93
2023-02-18T09:59:02.812Z,1011.88
2023-02-18T10:00:02.305Z,1011.91
2023-02-18T10:01:02.404Z,1011.88
2023-02-18T10:02:03.164Z,1011.87
2023-02-18T10:03:03.032Z,1011.92
2023-02-18T10:04:02.969Z,1011.89
2023-02-18T10:05:02.967Z,1011.84
2023-02-18T10:06:03.313Z,1011.84
2023-02-18T10:07:03.168Z,1011.85
2023-02-18T10:08:03.241Z,1011.82
2023-02-18T10:09:02.971Z,1011.79
2023-02-18T10:10:03.580Z,1011.70
2023-02-18T10:11:03.575Z,1011.76
2023-02-18T10:12:02.506Z,1011.64
2023-02-18T10:13:02.427Z,1011.65
2023-02-18T10:14:02.802Z,1011.68
2023-02-18T10:15:02.417Z,1011.66
2023-02-18T10:16:02.261Z,1011.62
2023-02-18T10:17:03.014Z,1011.61
2023-02-18T10:18:03.174Z,1011.57
2023-02-18T10:19:03.056Z,1011.64
2023-02-18T10:20:04.715Z,1011.59
2023-02-18T10:21:02.712Z,1011.54
2023-02-18T10:22:02.991Z,1011.56
2023-02-18T10:23:02.950Z,1011.56
2023-02-18T10:24:03.173Z,1011.53
2023-02-18T10:25:03.062Z,1011.52
2023-02-18T10:26:02.986Z,1011.57
2023-02-18T10:27:02.480Z,1011.58
2023-02-18T10:28:02.474Z,1011.60
2023-02-18T10:29:02.761Z,1011.60
2023-02-18T10:30:02.535Z,1011.63
2023-02-18T10:31:02.474Z,1011.50
2023-02-18T10:32:02.889Z,1011.65
2023-02-18T10:33:03.229Z,1011.62
2023-02-18T10:34:03.100Z,1011.67
2023-02-18T10:35:03.094Z,1011.62
2023-02-18T10:36:03.152Z,1011.60
2023-02-18T10:37:03.336Z,1011.58
2023-02-18T10:38:03.318Z,1011.63
2023-02-18T10:39:03.099Z,1011.59
2023-02-18T10:40:03.407Z,1011.61
2023-02-18T10:41:03.013Z,1011.53
2023-02-18T10:42:02.613Z,1011.53
2023-02-18T10:43:02.436Z,1011.57
2023-02-18T10:44:02.585Z,1011.62
2023-02-18T10:45:02.782Z,1011.69
2023-02-18T10:46:02.336Z,1011.57
2023-02-18T10:47:02.972Z,1011.55
2023-02-18T10:48:02.819Z,1011.53
2023-02-18T10:49:03.148Z,1011.49
2023-02-18T10:50:02.649Z,1011.54
2023-02-18T10:51:03.168Z,1011.51
2023-02-18T10:52:03.422Z,1011.55
2023-02-18T10:53:03.637Z,1011.57
2023-02-18T10:54:03.520Z,1011.49
2023-02-18T10:55:03.445Z,1011.49
2023-02-18T10:56:03.330Z,1011.51
2023-02-18T10:57:03.131Z,1011.43
2023-02-18T10:58:02.814Z,1011.44
2023-02-18T10:59:03.125Z,1011.44
2023-02-18T11:00:02.790Z,1011.49
2023-02-18T11:01:03.089Z,1011.49
2023-02-18T11:02:02.802Z,1011.58
2023-02-18T11:03:02.436Z,1011.51
2023-02-18T11:04:02.348Z,1011.51
2023-02-18T11:05:02.459Z,1011.46
2023-02-18T11:06:02.496Z,1011.55
2023-02-18T11:07:02.358Z,1011.53
2023-02-18T11:08:01.919Z,1011.54
2023-02-18T11:09:01.932Z,1011.52
2023-02-18T11:10:01.903Z,1011.37
2023-02-18T11:11:02.212Z,1011.41
2023-02-18T11:12:08.429Z,1011.48
2023-02-18T11:13:02.318Z,1011.47
2023-02-18T11:14:02.113Z,1011.50
2023-02-18T11:15:02.004Z,1011.39
2023-02-18T11:16:02.711Z,1011.54
2023-02-18T11:17:03.058Z,1011.52
2023-02-18T11:18:02.904Z,1011.52
2023-02-18T11:19:03.014Z,1011.53
2023-02-18T11:20:02.863Z,1011.61
2023-02-18T11:21:02.537Z,1011.60
2023-02-18T11:22:02.211Z,1011.59
2023-02-18T11:23:02.071Z,1011.61
2023-02-18T11:24:02.218Z,1011.58
2023-02-18T11:25:01.849Z,1011.67
2023-02-18T11:26:02.195Z,1011.62
2023-02-18T11:27:02.589Z,1011.66
2023-02-18T11:28:02.188Z,1011.70
2023-02-18T11:29:02.447Z,1011.67
2023-02-18T11:30:02.679Z,1011.75
2023-02-18T11:31:02.636Z,1011.78
2023-02-18T11:32:02.920Z,1011.80
2023-02-18T11:33:02.343Z,1011.72
2023-02-18T11:34:02.300Z,1011.75
2023-02-18T11:35:02.710Z,1011.74
2023-02-18T11:36:02.535Z,1011.78
2023-02-18T11:37:01.741Z,1011.80
2023-02-18T11:38:02.447Z,1011.75
2023-02-18T11:39:01.949Z,1011.78
2023-02-18T11:40:02.157Z,1011.77
2023-02-18T11:41:02.143Z,1011.84
2023-02-18T11:42:01.963Z,1011.78
2023-02-18T11:43:02.159Z,1011.80
2023-02-18T11:44:01.987Z,1011.79
2023-02-18T11:45:04.460Z,1011.73
2023-02-18T11:46:02.577Z,1011.75
2023-02-18T11:47:02.362Z,1011.69
2023-02-18T11:48:02.932Z,1011.62
2023-02-18T11:49:02.386Z,1011.60
2023-02-18T11:50:02.399Z,1011.61
2023-02-18T11:51:02.461Z,1011.62
2023-02-18T11:52:02.971Z,1011.66
2023-02-18T11:53:02.669Z,1011.72
2023-02-18T11:54:02.786Z,1011.65
2023-02-18T11:55:02.561Z,1011.69
2023-02-18T11:56:02.309Z,1011.70
2023-02-18T11:57:02.286Z,1011.68
2023-02-18T11:58:02.813Z,1011.64
2023-02-18T11:59:02.681Z,1011.65
2023-02-18T12:00:02.854Z,1011.67
2023-02-18T12:01:02.592Z,1011.59
2023-02-18T12:02:03.090Z,1011.55
2023-02-18T12:03:02.552Z,1011.56
2023-02-18T12:04:02.525Z,1011.51
2023-02-18T12:05:02.443Z,1011.55